DAL6942 KSMF-KRNO
Flight info
| Callsign | DAL6942 |
|---|---|
| Flight time | 0h 27m |
| Altitude | 19000 |
| Route | ORRCA TARVR2 |
| Aircraft | A321/M-SDE3FGHIRWY/LB1 |
Departure
| Time | 2026-05-07 00:20 |
|---|---|
| Airport | Sacramento International Airport (KSMF) |
Arrival
| Time | 2026-05-07 00:47 |
|---|---|
| Airport | Reno Tahoe International Airport (KRNO) |
| Time | Latitude | Longitude | Altitude | Speed | Heading |
|---|---|---|---|---|---|
| 2026-05-07 00:02 | 38.69520 | -121.59451 | 34 ft | 0 kts | 27° |
| 2026-05-07 00:11 | 38.69509 | -121.59458 | 32 ft | 4 kts | 22° |
| 2026-05-07 00:12 | 38.69483 | -121.59467 | 32 ft | 4 kts | 357° |
| 2026-05-07 00:12 | 38.69463 | -121.59459 | 33 ft | 4 kts | 292° |
| 2026-05-07 00:12 | 38.69461 | -121.59451 | 33 ft | 0 kts | 272° |
| 2026-05-07 00:15 | 38.69461 | -121.59458 | 33 ft | 3 kts | 272° |
| 2026-05-07 00:15 | 38.69463 | -121.59528 | 33 ft | 12 kts | 272° |
| 2026-05-07 00:15 | 38.69463 | -121.59659 | 33 ft | 16 kts | 271° |
| 2026-05-07 00:16 | 38.69466 | -121.59800 | 33 ft | 16 kts | 271° |
| 2026-05-07 00:16 | 38.69541 | -121.59867 | 33 ft | 15 kts | 357° |
| 2026-05-07 00:16 | 38.69647 | -121.59864 | 33 ft | 16 kts | 2° |
| 2026-05-07 00:16 | 38.69757 | -121.59862 | 33 ft | 16 kts | 360° |
| 2026-05-07 00:17 | 38.69872 | -121.59861 | 34 ft | 17 kts | 0° |
| 2026-05-07 00:17 | 38.69991 | -121.59861 | 34 ft | 17 kts | 1° |
| 2026-05-07 00:17 | 38.70113 | -121.59858 | 35 ft | 18 kts | 1° |
| 2026-05-07 00:17 | 38.70239 | -121.59856 | 35 ft | 18 kts | 0° |
| 2026-05-07 00:18 | 38.70368 | -121.59853 | 35 ft | 19 kts | 1° |
| 2026-05-07 00:18 | 38.70501 | -121.59851 | 35 ft | 19 kts | 1° |
| 2026-05-07 00:18 | 38.70636 | -121.59850 | 36 ft | 20 kts | 0° |
| 2026-05-07 00:18 | 38.70713 | -121.59893 | 36 ft | 13 kts | 297° |
| 2026-05-07 00:19 | 38.70721 | -121.60004 | 35 ft | 13 kts | 269° |
| 2026-05-07 00:19 | 38.70686 | -121.60109 | 34 ft | 16 kts | 194° |
| 2026-05-07 00:19 | 38.70491 | -121.60113 | 36 ft | 56 kts | 181° |
| 2026-05-07 00:19 | 38.69857 | -121.60124 | 35 ft | 124 kts | 180° |
| 2026-05-07 00:20 | 38.68814 | -121.60146 | 113 ft | 167 kts | 183° |
| 2026-05-07 00:20 | 38.67688 | -121.60158 | 829 ft | 162 kts | 181° |
| 2026-05-07 00:20 | 38.66492 | -121.60175 | 1093 ft | 183 kts | 181° |
| 2026-05-07 00:20 | 38.65161 | -121.60181 | 1361 ft | 202 kts | 181° |
| 2026-05-07 00:21 | 38.63687 | -121.60186 | 1587 ft | 223 kts | 181° |
| 2026-05-07 00:21 | 38.62041 | -121.60029 | 1842 ft | 248 kts | 172° |
| 2026-05-07 00:21 | 38.60342 | -121.59603 | 2467 ft | 256 kts | 168° |
| 2026-05-07 00:21 | 38.58583 | -121.59085 | 3174 ft | 262 kts | 169° |
| 2026-05-07 00:22 | 38.56788 | -121.58539 | 3783 ft | 271 kts | 168° |
| 2026-05-07 00:22 | 38.54929 | -121.57980 | 4443 ft | 277 kts | 168° |
| 2026-05-07 00:22 | 38.53027 | -121.57436 | 5118 ft | 282 kts | 168° |
| 2026-05-07 00:22 | 38.51119 | -121.56907 | 5774 ft | 287 kts | 168° |
| 2026-05-07 00:23 | 38.49152 | -121.56382 | 6461 ft | 290 kts | 166° |
| 2026-05-07 00:23 | 38.47321 | -121.55336 | 7106 ft | 291 kts | 141° |
| 2026-05-07 00:23 | 38.46014 | -121.53415 | 7689 ft | 287 kts | 116° |
| 2026-05-07 00:23 | 38.45466 | -121.50992 | 7981 ft | 285 kts | 89° |
| 2026-05-07 00:24 | 38.45776 | -121.48528 | 8331 ft | 282 kts | 70° |
| 2026-05-07 00:24 | 38.46383 | -121.46150 | 8696 ft | 283 kts | 72° |
| 2026-05-07 00:24 | 38.46937 | -121.43743 | 9095 ft | 282 kts | 72° |
| 2026-05-07 00:24 | 38.47470 | -121.41325 | 9403 ft | 285 kts | 73° |
| 2026-05-07 00:25 | 38.47979 | -121.38878 | 9876 ft | 289 kts | 74° |
| 2026-05-07 00:25 | 38.48488 | -121.36359 | 10279 ft | 302 kts | 74° |
| 2026-05-07 00:25 | 38.49045 | -121.33668 | 10416 ft | 324 kts | 74° |
| 2026-05-07 00:25 | 38.49642 | -121.30835 | 10548 ft | 345 kts | 74° |
| 2026-05-07 00:26 | 38.50279 | -121.27831 | 10962 ft | 354 kts | 74° |
| 2026-05-07 00:26 | 38.50929 | -121.24780 | 11545 ft | 358 kts | 74° |
| 2026-05-07 00:26 | 38.51586 | -121.21715 | 12165 ft | 360 kts | 74° |
| 2026-05-07 00:26 | 38.52243 | -121.18645 | 12773 ft | 363 kts | 74° |
| 2026-05-07 00:27 | 38.52912 | -121.15519 | 13386 ft | 367 kts | 74° |
| 2026-05-07 00:27 | 38.53588 | -121.12365 | 14009 ft | 370 kts | 74° |
| 2026-05-07 00:27 | 38.54268 | -121.09183 | 14550 ft | 373 kts | 74° |
| 2026-05-07 00:27 | 38.54955 | -121.05968 | 15114 ft | 376 kts | 74° |
| 2026-05-07 00:28 | 38.55641 | -121.02735 | 15689 ft | 379 kts | 74° |
| 2026-05-07 00:28 | 38.56331 | -120.99470 | 16263 ft | 382 kts | 74° |
| 2026-05-07 00:28 | 38.57026 | -120.96184 | 16841 ft | 385 kts | 74° |
| 2026-05-07 00:28 | 38.57719 | -120.92912 | 17419 ft | 388 kts | 73° |
| 2026-05-07 00:29 | 38.58425 | -120.89569 | 17969 ft | 391 kts | 73° |
| 2026-05-07 00:29 | 38.59136 | -120.86202 | 18504 ft | 394 kts | 73° |
| 2026-05-07 00:30 | 38.61292 | -120.75926 | 19140 ft | 408 kts | 73° |
| 2026-05-07 00:30 | 38.62030 | -120.72411 | 19146 ft | 410 kts | 73° |
| 2026-05-07 00:30 | 38.62769 | -120.68889 | 19147 ft | 411 kts | 73° |
| 2026-05-07 00:30 | 38.63499 | -120.65405 | 19148 ft | 411 kts | 73° |
| 2026-05-07 00:31 | 38.64236 | -120.61868 | 19157 ft | 411 kts | 73° |
| 2026-05-07 00:31 | 38.64972 | -120.58326 | 19158 ft | 411 kts | 73° |
| 2026-05-07 00:31 | 38.65706 | -120.54789 | 19161 ft | 411 kts | 73° |
| 2026-05-07 00:31 | 38.66439 | -120.51253 | 19163 ft | 411 kts | 73° |
| 2026-05-07 00:32 | 38.67173 | -120.47718 | 19171 ft | 411 kts | 73° |
| 2026-05-07 00:32 | 38.67908 | -120.44175 | 19168 ft | 410 kts | 73° |
| 2026-05-07 00:32 | 38.68614 | -120.40738 | 18952 ft | 399 kts | 73° |
| 2026-05-07 00:32 | 38.69310 | -120.37349 | 18722 ft | 389 kts | 73° |
| 2026-05-07 00:33 | 38.69993 | -120.34030 | 18495 ft | 383 kts | 73° |
| 2026-05-07 00:33 | 38.70670 | -120.30744 | 18248 ft | 380 kts | 73° |
| 2026-05-07 00:33 | 38.71341 | -120.27477 | 18001 ft | 379 kts | 73° |
| 2026-05-07 00:33 | 38.72012 | -120.24215 | 17726 ft | 378 kts | 73° |
| 2026-05-07 00:34 | 38.72678 | -120.20968 | 17482 ft | 377 kts | 73° |
| 2026-05-07 00:34 | 38.73340 | -120.17734 | 17232 ft | 374 kts | 73° |
| 2026-05-07 00:34 | 38.73986 | -120.14563 | 16991 ft | 372 kts | 74° |
| 2026-05-07 00:34 | 38.74625 | -120.11397 | 16744 ft | 361 kts | 74° |
| 2026-05-07 00:35 | 38.75246 | -120.08321 | 16501 ft | 352 kts | 74° |
| 2026-05-07 00:35 | 38.75856 | -120.05315 | 16244 ft | 348 kts | 74° |
| 2026-05-07 00:35 | 38.76466 | -120.02326 | 16001 ft | 346 kts | 74° |
| 2026-05-07 00:35 | 38.77074 | -119.99352 | 15836 ft | 345 kts | 74° |
| 2026-05-07 00:36 | 38.77676 | -119.96386 | 15591 ft | 343 kts | 74° |
| 2026-05-07 00:36 | 38.78273 | -119.93427 | 15350 ft | 342 kts | 74° |
| 2026-05-07 00:36 | 38.78864 | -119.90484 | 15095 ft | 341 kts | 74° |
| 2026-05-07 00:36 | 38.79448 | -119.87578 | 14558 ft | 342 kts | 74° |
| 2026-05-07 00:37 | 38.80029 | -119.84682 | 14370 ft | 326 kts | 75° |
| 2026-05-07 00:37 | 38.80660 | -119.81971 | 14219 ft | 310 kts | 64° |
| 2026-05-07 00:37 | 38.81811 | -119.79704 | 14024 ft | 300 kts | 45° |
| 2026-05-07 00:37 | 38.83441 | -119.78084 | 13894 ft | 299 kts | 28° |
| 2026-05-07 00:38 | 38.85396 | -119.77200 | 13735 ft | 300 kts | 9° |
| 2026-05-07 00:38 | 38.87478 | -119.77076 | 13571 ft | 301 kts | 1° |
| 2026-05-07 00:38 | 38.89568 | -119.77083 | 13390 ft | 300 kts | 1° |
| 2026-05-07 00:38 | 38.91623 | -119.77083 | 13213 ft | 299 kts | 1° |
| 2026-05-07 00:39 | 38.93702 | -119.77082 | 12984 ft | 299 kts | 1° |
| 2026-05-07 00:39 | 38.95773 | -119.77078 | 12683 ft | 296 kts | 1° |
| 2026-05-07 00:39 | 38.97829 | -119.77072 | 12399 ft | 295 kts | 1° |
| 2026-05-07 00:39 | 38.99878 | -119.77066 | 12118 ft | 293 kts | 1° |
| 2026-05-07 00:40 | 39.01914 | -119.77057 | 11836 ft | 293 kts | 0° |
| 2026-05-07 00:40 | 39.03950 | -119.77051 | 11549 ft | 292 kts | 0° |
| 2026-05-07 00:40 | 39.05985 | -119.77049 | 11291 ft | 291 kts | 0° |
| 2026-05-07 00:40 | 39.07971 | -119.77051 | 11150 ft | 281 kts | 0° |
| 2026-05-07 00:41 | 39.09868 | -119.77051 | 11017 ft | 272 kts | 0° |
| 2026-05-07 00:41 | 39.11735 | -119.77041 | 10849 ft | 269 kts | 1° |
| 2026-05-07 00:41 | 39.13608 | -119.76989 | 10491 ft | 269 kts | 1° |
| 2026-05-07 00:41 | 39.15477 | -119.76916 | 10202 ft | 266 kts | 2° |
| 2026-05-07 00:42 | 39.17299 | -119.76840 | 10080 ft | 257 kts | 2° |
| 2026-05-07 00:42 | 39.19075 | -119.76769 | 9912 ft | 255 kts | 1° |
| 2026-05-07 00:42 | 39.20841 | -119.76737 | 9641 ft | 252 kts | 1° |
| 2026-05-07 00:42 | 39.22600 | -119.76730 | 9402 ft | 252 kts | 359° |
| 2026-05-07 00:43 | 39.24322 | -119.76738 | 9161 ft | 251 kts | 359° |
| 2026-05-07 00:43 | 39.26070 | -119.76744 | 8948 ft | 251 kts | 360° |
| 2026-05-07 00:43 | 39.27805 | -119.76746 | 8701 ft | 248 kts | 0° |
| 2026-05-07 00:43 | 39.29532 | -119.76744 | 8465 ft | 248 kts | 0° |
| 2026-05-07 00:44 | 39.31260 | -119.76739 | 8223 ft | 247 kts | 360° |
| 2026-05-07 00:44 | 39.32971 | -119.76732 | 8006 ft | 243 kts | 1° |
| 2026-05-07 00:44 | 39.34662 | -119.76727 | 7577 ft | 243 kts | 0° |
| 2026-05-07 00:44 | 39.36342 | -119.76723 | 7187 ft | 243 kts | 0° |
| 2026-05-07 00:45 | 39.38021 | -119.76718 | 6827 ft | 239 kts | 0° |
| 2026-05-07 00:45 | 39.39685 | -119.76715 | 6459 ft | 238 kts | 0° |
| 2026-05-07 00:45 | 39.41304 | -119.76714 | 6141 ft | 229 kts | 359° |
| 2026-05-07 00:45 | 39.42836 | -119.76713 | 5858 ft | 211 kts | 360° |
| 2026-05-07 00:46 | 39.44234 | -119.76713 | 5561 ft | 194 kts | 360° |
| 2026-05-07 00:46 | 39.45538 | -119.76711 | 5212 ft | 179 kts | 359° |
| 2026-05-07 00:46 | 39.46723 | -119.76707 | 4903 ft | 164 kts | 356° |
| 2026-05-07 00:46 | 39.47847 | -119.76711 | 4663 ft | 159 kts | 356° |
| 2026-05-07 00:47 | 39.48949 | -119.76697 | 4439 ft | 158 kts | 358° |
| 2026-05-07 00:47 | 39.49969 | -119.76687 | 4408 ft | 131 kts | 1° |
| 2026-05-07 00:47 | 39.50589 | -119.76682 | 4406 ft | 45 kts | 0° |
| 2026-05-07 00:47 | 39.50778 | -119.76682 | 4408 ft | 25 kts | 360° |
| 2026-05-07 00:48 | 39.50945 | -119.76714 | 4410 ft | 23 kts | 338° |
| 2026-05-07 00:48 | 39.51056 | -119.76840 | 4412 ft | 21 kts | 314° |
| 2026-05-07 00:48 | 39.51099 | -119.77004 | 4412 ft | 19 kts | 272° |